Airfield :
LOGIN :

Register | Disclaimer

   EN    FR    IT 

 










Legend :    VFR   Marginal VFR   IFR   Intensive IFR   Very Intensive IFR
Visi :
Ceiling :
>= 8 km
>= 3000ft
5 to 8 km
1000 to 3000 ft
1500m to 5 km
500 to 1000 ft
800 to 1500m
200 to 500 ft
< 800m
< 200 ft
Symbols :   Thunderstorms  Fog  Heavy snow  Heavy precipitations  Wind > 20 kt
SIGMETs :     Misc.  Thunderstorms  Icing  Turbulence  Mountain Waves  Volcanic Ashes






- Airport Elevation : 119 ft
- IATA code : WAT


EIWF - Waterford

CURRENT METAR :
  • 061800Z 20012KT 9999 FEW009 SCT022 BKN030 17/15 Q1014

EXPIRED METARs :
  • 061730Z 20013KT 170V230 9999 FEW012 SCT022 BKN028 17/16 Q1014
  • 061700Z 20013KT 170V240 9999 FEW012 BKN028 17/16 Q1014
  • 061630Z 20013KT 150V230 9999 FEW012 BKN045 18/16 Q1014
  • 061600Z 20012KT 170V230 9999 FEW008 BKN017 17/16 Q1014
  • 061530Z 20012KT 170V230 9999 SCT010 BKN016 17/16 Q1014
  • 061500Z 20014KT 170V230 9999 SCT008 BKN018 18/16 Q1014

TAF TAF EIWF
Valid from the 06 at 18:00 until the 07 at 03:00 UTC


061700Z 0618/0703 20010KT 9999 FEW010 BKN030
BECMG 0619/0621 BKN009
TEMPO 0621/0701 3000 BR BKN004
PROB30
TEMPO 0622/0701 0500 FG BKN001
ATIS : +353 51 877 000



MET'MAP, your aeronautical weather chart ! - Copyright ORBIFLY December 2007 - Disclaimer

ORBIFLY MET'MAP TEAM :

Programming & Development : Alexandra Zaïnal
Concept & original design : Baudouin d'Aumeries
Assistance for programming : Marc-Olivier Méhu
Technical & hardware support : Manuel Goepfert

Contact : metmap@orbifly.com




SOURCES & CREDITS :

   NOAA